Time;durP1;ratioP1;P1;durP2;ratioP2;P2;SDS_P1;SDS_P2;PMS_P1;PMS_P2;Temp;Humidity;BMP_temperature;BMP_pressure;BME280_temperature;BME280_humidity;BME280_pressure;Samples;Min_cycle;Max_cycle;Signal;HPM_P1;HPM_P2
2023/01/26 00:02:05;;;;;;;;;;;;;;;;;;4399893;32;60030;-63
2023/01/26 00:04:52;;;;;;;4.80;2.58;;;;;;;;;;4388751;32;69444;-64
2023/01/26 00:07:43;;;;;;;5.12;3.20;;;;;;;;;;4399243;32;68419;-65
2023/01/26 00:10:30;;;;;;;4.90;2.83;;;;;;;;;;4389111;32;67745;-64
2023/01/26 00:13:18;;;;;;;4.25;2.72;;;;;;;;;;4387744;32;72571;-62
2023/01/26 00:16:12;;;;;;;4.82;3.00;;;;;;;;;;4399388;32;65699;-64
2023/01/26 00:18:58;;;;;;;3.97;2.62;;;;;;;;;;4377748;32;68791;-62
2023/01/26 00:21:45;;;;;;;4.85;2.75;;;;;;;;;;4398990;32;67575;-63
2023/01/26 00:24:32;;;;;;;4.57;2.70;;;;;;;;;;4400303;32;70830;-64
2023/01/26 00:27:18;;;;;;;;;;;;;;;;;;4399509;32;65861;-63
2023/01/26 00:30:05;;;;;;;5.80;2.87;;;;;;;;;;4400607;32;68387;-65
2023/01/26 00:32:52;;;;;;;4.47;2.58;;;;;;;;;;4388219;32;60692;-63
2023/01/26 00:35:43;;;;;;;3.80;2.62;;;;;;;;;;4399521;32;70411;-64
2023/01/26 00:38:30;;;;;;;6.57;2.80;;;;;;;;;;4377053;32;69639;-65
2023/01/26 00:44:22;;;;;;;5.28;2.60;;;;;;;;;;4390293;32;71396;-64
2023/01/26 00:47:10;;;;;;;4.35;2.60;;;;;;;;;;4388330;32;70361;-64
2023/01/26 00:49:57;;;;;;;3.95;2.55;;;;;;;;;;4387268;32;70494;-63
2023/01/26 00:52:43;;;;;;;4.32;2.55;;;;;;;;;;4398926;32;67741;-63
2023/01/26 00:55:33;;;;;;;4.62;2.40;;;;;;;;;;4387115;32;71448;-64
2023/01/26 00:58:19;;;;;;;4.90;2.80;;;;;;;;;;4398549;32;64824;-63
2023/01/26 01:01:07;;;;;;;5.18;2.70;;;;;;;;;;4398732;32;66840;-65
2023/01/26 01:03:53;;;;;;;4.05;2.42;;;;;;;;;;4387993;32;59927;-63
2023/01/26 01:06:40;;;;;;;3.95;2.62;;;;;;;;;;4387125;32;68839;-64
2023/01/26 01:09:27;;;;;;;;;;;;;;;;;;4366494;32;69023;-63
2023/01/26 01:12:14;;;;;;;5.22;2.70;;;;;;;;;;4376375;32;68618;-63
2023/01/26 01:15:00;;;;;;;4.57;2.60;;;;;;;;;;4376412;32;60750;-63
2023/01/26 01:17:47;;;;;;;;;;;;;;;;;;4387973;32;69579;-63
2023/01/26 01:20:33;;;;;;;4.60;2.55;;;;;;;;;;4376302;32;69213;-64
2023/01/26 01:23:20;;;;;;;4.10;2.72;;;;;;;;;;4377056;32;67529;-63
2023/01/26 01:26:07;;;;;;;4.20;2.92;;;;;;;;;;4399495;32;70512;-64
2023/01/26 01:28:56;;;;;;;4.80;2.45;;;;;;;;;;4387194;32;66801;-63
2023/01/26 01:31:43;;;;;;;3.85;2.60;;;;;;;;;;4377207;32;67511;-63
2023/01/26 01:34:29;;;;;;;;;;;;;;;;;;4387451;32;68261;-63
2023/01/26 01:37:16;;;;;;;3.08;2.28;;;;;;;;;;4398335;32;71952;-63
2023/01/26 01:40:03;;;;;;;4.10;2.50;;;;;;;;;;4386782;32;66772;-63
2023/01/26 01:42:49;;;;;;;5.20;2.50;;;;;;;;;;4387433;32;67887;-63
2023/01/26 01:45:45;;;;;;;4.40;2.65;;;;;;;;;;4398400;32;60006;-63
2023/01/26 01:48:43;;;;;;;4.20;2.47;;;;;;;;;;4398186;32;70473;-63
2023/01/26 01:51:33;;;;;;;4.12;2.45;;;;;;;;;;4376677;32;68256;-64
2023/01/26 01:54:25;;;;;;;3.80;2.40;;;;;;;;;;4387244;32;66945;-63
2023/01/26 01:57:17;;;;;;;3.92;2.37;;;;;;;;;;4399488;32;71384;-64
2023/01/26 02:00:07;;;;;;;4.12;2.80;;;;;;;;;;4397890;32;70692;-64
2023/01/26 02:03:19;;;;;;;3.87;2.47;;;;;;;;;;4387469;32;69749;-63
2023/01/26 02:06:19;;;;;;;3.87;2.70;;;;;;;;;;4398306;32;66612;-63
2023/01/26 02:09:05;;;;;;;4.30;2.50;;;;;;;;;;4397696;32;71974;-64
2023/01/26 02:11:52;;;;;;;4.20;2.55;;;;;;;;;;4386506;32;65808;-63
2023/01/26 02:14:40;;;;;;;4.05;2.58;;;;;;;;;;4397966;32;67890;-63
2023/01/26 02:17:27;;;;;;;3.87;2.35;;;;;;;;;;4375640;32;59895;-64
2023/01/26 02:20:42;;;;;;;4.55;2.58;;;;;;;;;;4397844;32;69682;-63
2023/01/26 02:24:08;;;;;;;4.62;2.72;;;;;;;;;;4385259;32;69028;-63
2023/01/26 02:26:56;;;;;;;4.60;2.50;;;;;;;;;;4397618;32;67057;-64
2023/01/26 02:29:42;;;;;;;2.67;2.15;;;;;;;;;;4397671;32;60120;-64
2023/01/26 02:32:29;;;;;;;3.22;2.20;;;;;;;;;;4386301;32;71269;-64
2023/01/26 02:35:16;;;;;;;5.80;2.10;;;;;;;;;;4397686;32;69570;-64
2023/01/26 02:38:03;;;;;;;3.30;2.45;;;;;;;;;;4398567;32;68129;-63
2023/01/26 02:41:10;;;;;;;4.18;2.30;;;;;;;;;;4396877;32;72133;-63
2023/01/26 02:43:57;;;;;;;3.75;2.62;;;;;;;;;;4398093;32;65787;-63
2023/01/26 02:46:43;;;;;;;3.15;2.08;;;;;;;;;;4398119;32;67765;-63
2023/01/26 02:52:36;;;;;;;3.35;2.20;;;;;;;;;;4398302;32;71677;-64
2023/01/26 02:55:24;;;;;;;;;;;;;;;;;;4397769;32;64939;-63
2023/01/26 02:58:10;;;;;;;4.10;2.45;;;;;;;;;;4397466;32;67228;-63
2023/01/26 03:00:57;;;;;;;4.05;2.08;;;;;;;;;;4398634;32;60418;-63
2023/01/26 03:03:44;;;;;;;;;;;;;;;;;;4386787;32;70436;-65
2023/01/26 03:06:32;;;;;;;4.07;2.15;;;;;;;;;;4397246;32;68668;-62
2023/01/26 03:09:19;;;;;;;3.97;2.50;;;;;;;;;;4375948;32;66955;-63
2023/01/26 03:12:06;;;;;;;2.72;2.00;;;;;;;;;;4397738;32;70847;-63
2023/01/26 03:27:35;;;;;;;4.55;2.42;;;;;;;;;;4387523;32;66801;-64
2023/01/26 03:30:21;;;;;;;5.07;2.40;;;;;;;;;;4386144;32;67899;-64
2023/01/26 03:33:08;;;;;;;3.97;2.50;;;;;;;;;;4397062;32;60157;-65
2023/01/26 03:35:55;;;;;;;3.33;2.28;;;;;;;;;;4386007;32;70523;-64
2023/01/26 03:38:42;;;;;;;3.60;2.17;;;;;;;;;;4396391;32;69333;-62
2023/01/26 03:56:57;;;;;;;4.72;2.50;;;;;;;;;;4396106;32;72047;-63
2023/01/26 03:59:44;;;;;;;4.85;2.03;;;;;;;;;;4398279;32;66034;-63
2023/01/26 04:08:45;;;;;;;2.85;1.80;;;;;;;;;;4387582;32;70780;-63
2023/01/26 04:11:33;;;;;;;3.33;2.22;;;;;;;;;;4386100;32;66179;-63
2023/01/26 04:23:38;;;;;;;4.65;2.80;;;;;;;;;;4396361;32;68426;-63
2023/01/26 04:26:35;;;;;;;4.75;2.17;;;;;;;;;;4396364;32;67508;-63
2023/01/26 04:29:22;;;;;;;4.67;2.70;;;;;;;;;;4386141;32;71586;-62
2023/01/26 04:32:09;;;;;;;4.72;2.62;;;;;;;;;;4385397;32;67764;-63
2023/01/26 04:34:55;;;;;;;4.72;3.03;;;;;;;;;;4397582;32;68914;-63
2023/01/26 04:37:47;;;;;;;4.18;2.53;;;;;;;;;;4375850;32;67294;-65
2023/01/26 04:40:34;;;;;;;4.35;2.58;;;;;;;;;;4385099;32;72393;-63
2023/01/26 04:43:22;;;;;;;2.87;2.10;;;;;;;;;;4385710;32;66142;-63
2023/01/26 04:46:08;;;;;;;3.37;2.30;;;;;;;;;;4386234;32;68178;-66
2023/01/26 04:48:55;;;;;;;4.18;2.40;;;;;;;;;;4400224;32;60560;-63
2023/01/26 04:51:42;;;;;;;4.47;2.47;;;;;;;;;;4399877;32;69605;-62
2023/01/26 04:54:29;;;;;;;4.05;2.40;;;;;;;;;;4376584;32;69107;-64
2023/01/26 04:57:19;;;;;;;3.83;2.42;;;;;;;;;;4366764;32;67143;-63
2023/01/26 05:00:10;;;;;;;3.60;2.37;;;;;;;;;;4398572;32;61088;-63
2023/01/26 05:02:57;;;;;;;3.28;2.15;;;;;;;;;;4388260;32;69604;-63
2023/01/26 05:05:44;;;;;;;3.87;2.40;;;;;;;;;;4388323;32;68516;-63
2023/01/26 05:08:31;;;;;;;3.50;2.50;;;;;;;;;;4388566;32;67528;-63
2023/01/26 05:11:18;;;;;;;3.37;2.05;;;;;;;;;;4376536;32;71670;-63
2023/01/26 05:14:05;;;;;;;4.10;2.45;;;;;;;;;;4387626;32;65920;-63
2023/01/26 05:16:52;;;;;;;5.82;2.22;;;;;;;;;;4388126;32;67926;-64
2023/01/26 05:19:39;;;;;;;2.80;2.10;;;;;;;;;;4398189;32;60740;-63
2023/01/26 05:22:26;;;;;;;3.47;1.95;;;;;;;;;;4398264;32;70510;-63
2023/01/26 05:25:15;;;;;;;3.78;2.40;;;;;;;;;;4399902;32;65799;-63
2023/01/26 05:28:03;;;;;;;4.25;2.70;;;;;;;;;;4398311;32;68076;-63
2023/01/26 05:30:50;;;;;;;4.45;2.50;;;;;;;;;;4399842;32;59523;-63
2023/01/26 05:33:37;;;;;;;4.10;2.30;;;;;;;;;;4397641;32;71286;-62
2023/01/26 05:36:24;;;;;;;4.72;2.50;;;;;;;;;;4386994;32;69921;-63
2023/01/26 05:39:11;;;;;;;4.80;2.40;;;;;;;;;;4397761;32;66642;-63
2023/01/26 05:41:58;;;;;;;3.70;2.30;;;;;;;;;;4399437;32;71644;-63
2023/01/26 05:44:45;;;;;;;4.93;2.72;;;;;;;;;;4387127;32;66679;-63
2023/01/26 05:47:32;;;;;;;;;;;;;;;;;;4400114;32;68192;-64
2023/01/26 05:50:19;;;;;;;5.43;2.55;;;;;;;;;;4398366;32;67593;-63
2023/01/26 05:53:20;;;;;;;4.07;2.60;;;;;;;;;;4389079;32;71719;-63
2023/01/26 05:56:07;;;;;;;2.83;2.20;;;;;;;;;;4399303;32;66233;-64
2023/01/26 05:58:54;;;;;;;;;;;;;;;;;;4398269;32;66783;-65
2023/01/26 06:01:40;;;;;;;4.12;2.60;;;;;;;;;;4398475;32;60049;-63
2023/01/26 06:04:27;;;;;;;;;;;;;;;;;;4398141;32;70487;-63
2023/01/26 06:07:14;;;;;;;2.05;1.55;;;;;;;;;;4399426;32;69166;-63
2023/01/26 06:10:00;;;;;;;;;;;;;;;;;;4398302;32;67470;-62
2023/01/26 06:13:02;;;;;;;3.33;2.42;;;;;;;;;;3847531;37;43420;-64
2023/01/26 06:15:51;;;;;;;3.05;2.12;;;;;;;;;;4410024;32;60340;-64
2023/01/26 06:18:39;;;;;;;3.37;2.30;;;;;;;;;;4411040;32;70495;-63
2023/01/26 06:21:26;;;;;;;;;;;;;;;;;;4398811;32;70283;-64
2023/01/26 06:24:13;;;;;;;4.43;2.75;;;;;;;;;;4388514;32;67941;-63
2023/01/26 06:27:01;;;;;;;4.10;2.62;;;;;;;;;;4411024;32;71466;-63
2023/01/26 06:29:47;;;;;;;4.10;2.50;;;;;;;;;;4387916;32;66571;-64
2023/01/26 06:32:34;;;;;;;3.75;2.83;;;;;;;;;;4409148;32;67949;-63
2023/01/26 06:35:21;;;;;;;4.10;2.72;;;;;;;;;;4399061;32;60113;-65
2023/01/26 06:38:08;;;;;;;4.95;2.83;;;;;;;;;;4409441;32;71701;-63
2023/01/26 06:40:58;;;;;;;5.78;2.75;;;;;;;;;;4410902;32;66107;-63
2023/01/26 06:43:47;;;;;;;5.03;2.53;;;;;;;;;;4398669;32;67569;-63
2023/01/26 06:46:33;;;;;;;3.90;2.20;;;;;;;;;;4398956;32;59183;-63
2023/01/26 06:49:23;;;;;;;3.67;2.53;;;;;;;;;;4409287;32;70438;-64
2023/01/26 06:52:27;;;;;;;4.62;2.50;;;;;;;;;;4410346;32;69462;-64
2023/01/26 06:55:27;;;;;;;3.37;2.30;;;;;;;;;;4408637;32;67072;-63
2023/01/26 06:58:14;;;;;;;3.83;1.92;;;;;;;;;;4397692;32;72172;-63
2023/01/26 07:01:03;;;;;;;4.10;2.45;;;;;;;;;;4410790;32;65551;-62
2023/01/26 07:03:50;;;;;;;4.07;2.45;;;;;;;;;;4398422;32;68478;-63
2023/01/26 07:06:37;;;;;;;3.50;2.37;;;;;;;;;;4410043;32;67885;-64
2023/01/26 07:09:24;;;;;;;3.58;2.40;;;;;;;;;;4409775;32;71151;-63
2023/01/26 07:12:10;;;;;;;4.68;2.70;;;;;;;;;;4408668;32;65848;-63
2023/01/26 07:14:57;;;;;;;4.75;2.90;;;;;;;;;;4409040;32;67351;-63
2023/01/26 07:17:43;;;;;;;4.55;2.50;;;;;;;;;;4410526;32;60423;-64
2023/01/26 07:20:30;;;;;;;5.00;3.20;;;;;;;;;;4398112;32;69532;-63
2023/01/26 07:23:16;;;;;;;;;;;;;;;;;;4382215;32;68170;-63
2023/01/26 07:26:03;;;;;;;3.85;2.62;;;;;;;;;;4398864;32;67733;-63
2023/01/26 07:28:49;;;;;;;;;;;;;;;;;;4399224;32;58831;-64
2023/01/26 07:31:36;;;;;;;4.50;3.00;;;;;;;;;;4387914;32;69547;-64
2023/01/26 07:34:23;;;;;;;4.20;2.75;;;;;;;;;;4398647;32;69332;-63
2023/01/26 07:37:09;;;;;;;4.85;2.75;;;;;;;;;;4398639;32;66707;-63
2023/01/26 07:39:56;;;;;;;4.28;2.90;;;;;;;;;;4387746;32;71933;-63
2023/01/26 07:42:43;;;;;;;4.15;2.67;;;;;;;;;;4399794;32;65872;-63
2023/01/26 07:45:36;;;;;;;3.95;2.83;;;;;;;;;;4399991;32;66935;-62
2023/01/26 07:48:24;;;;;;;4.30;2.85;;;;;;;;;;4387439;32;59985;-62
2023/01/26 07:51:11;;;;;;;4.85;2.78;;;;;;;;;;4399568;32;70583;-62
2023/01/26 07:53:57;;;;;;;5.75;2.87;;;;;;;;;;4398216;32;65775;-62
2023/01/26 07:56:44;;;;;;;3.55;2.72;;;;;;;;;;4376001;32;67256;-62
2023/01/26 07:59:31;;;;;;;3.12;2.50;;;;;;;;;;4397982;32;59945;-63
2023/01/26 08:02:18;;;;;;;4.72;2.67;;;;;;;;;;4398080;32;70749;-62
2023/01/26 08:05:05;;;;;;;3.45;2.80;;;;;;;;;;4386868;32;69569;-63
2023/01/26 08:07:51;;;;;;;4.87;2.75;;;;;;;;;;4386911;32;68359;-63
2023/01/26 08:10:38;;;;;;;4.10;2.55;;;;;;;;;;4375644;32;71458;-63
2023/01/26 08:13:25;;;;;;;3.50;2.65;;;;;;;;;;4376036;32;65992;-63
2023/01/26 08:16:13;;;;;;;4.28;3.00;;;;;;;;;;4387603;32;66811;-63
2023/01/26 08:18:59;;;;;;;4.40;2.78;;;;;;;;;;4376723;32;67580;-62
2023/01/26 08:21:47;;;;;;;4.78;2.97;;;;;;;;;;4376185;32;70579;-62
2023/01/26 08:24:33;;;;;;;3.72;2.90;;;;;;;;;;4399533;32;65743;-63
2023/01/26 08:27:21;;;;;;;5.05;2.65;;;;;;;;;;4386587;32;67920;-63
2023/01/26 08:30:08;;;;;;;3.95;2.75;;;;;;;;;;4376791;32;59246;-64
2023/01/26 08:32:55;;;;;;;4.68;2.70;;;;;;;;;;4386349;32;69371;-64
2023/01/26 08:35:42;;;;;;;7.22;2.90;;;;;;;;;;4386389;32;68985;-63
2023/01/26 08:38:30;;;;;;;3.47;2.70;;;;;;;;;;4386613;32;67280;-62
2023/01/26 08:41:17;;;;;;;4.60;2.80;;;;;;;;;;4387247;32;59081;-63
2023/01/26 08:44:03;;;;;;;3.00;2.30;;;;;;;;;;4386438;32;70110;-63
2023/01/26 08:46:50;;;;;;;;;;;;;;;;;;4398040;32;69368;-62
2023/01/26 08:49:37;;;;;;;3.40;2.70;;;;;;;;;;4365680;32;68726;-62
2023/01/26 08:52:23;;;;;;;4.78;2.70;;;;;;;;;;4385860;32;69814;-63
2023/01/26 08:55:11;;;;;;;4.72;2.85;;;;;;;;;;4397516;32;64821;-65
2023/01/26 08:57:57;;;;;;;3.50;2.80;;;;;;;;;;4386905;32;67520;-62
2023/01/26 09:00:44;;;;;;;4.68;2.70;;;;;;;;;;4387182;32;59163;-62
2023/01/26 09:03:31;;;;;;;4.80;2.60;;;;;;;;;;4386669;32;70725;-63
2023/01/26 09:06:20;;;;;;;4.18;2.67;;;;;;;;;;4375967;32;66960;-62
2023/01/26 09:09:11;;;;;;;4.72;2.75;;;;;;;;;;4397257;32;68624;-61
2023/01/26 09:11:58;;;;;;;4.40;2.50;;;;;;;;;;4397369;32;60017;-62
2023/01/26 09:14:45;;;;;;;3.35;2.53;;;;;;;;;;4387112;32;69750;-62
2023/01/26 09:17:32;;;;;;;4.32;2.50;;;;;;;;;;4399299;32;69205;-61
2023/01/26 09:20:18;;;;;;;3.97;2.53;;;;;;;;;;4402526;32;67594;-61
2023/01/26 09:23:05;;;;;;;3.08;2.22;;;;;;;;;;4390135;32;72123;-63
2023/01/26 09:25:52;;;;;;;3.17;2.17;;;;;;;;;;4403246;32;65939;-62
2023/01/26 09:28:39;;;;;;;4.28;2.28;;;;;;;;;;4379323;32;67834;-62
2023/01/26 09:31:26;;;;;;;3.90;2.45;;;;;;;;;;4398906;32;67777;-63
2023/01/26 09:34:13;;;;;;;3.25;2.37;;;;;;;;;;4386081;32;72543;-63
2023/01/26 09:37:00;;;;;;;4.45;2.62;;;;;;;;;;4396996;32;66551;-63
2023/01/26 09:39:46;;;;;;;3.85;2.30;;;;;;;;;;4375342;32;68757;-63
2023/01/26 09:42:54;;;;;;;3.53;2.33;;;;;;;;;;4397288;32;60203;-63
2023/01/26 09:46:00;;;;;;;4.57;2.67;;;;;;;;;;4385984;32;70582;-64
2023/01/26 09:49:06;;;;;;;3.42;2.58;;;;;;;;;;4396960;32;68473;-64
2023/01/26 09:52:05;;;;;;;3.30;2.37;;;;;;;;;;4386368;32;67985;-63
2023/01/26 09:54:57;;;;;;;4.57;2.80;;;;;;;;;;4386583;32;71687;-62
2023/01/26 09:57:52;;;;;;;3.22;2.42;;;;;;;;;;4396751;32;69724;-63
2023/01/26 10:00:46;;;;;;;3.15;2.50;;;;;;;;;;4385312;32;69041;-63
2023/01/26 10:03:32;;;;;;;3.40;2.50;;;;;;;;;;4375326;32;68769;-63
2023/01/26 10:06:27;;;;;;;3.20;2.42;;;;;;;;;;4396731;32;70827;-64
2023/01/26 10:09:31;;;;;;;3.17;2.20;;;;;;;;;;4387041;32;65972;-62
2023/01/26 10:12:37;;;;;;;4.55;2.40;;;;;;;;;;4397574;32;67483;-63
2023/01/26 10:15:42;;;;;;;3.60;2.15;;;;;;;;;;4398399;32;59280;-63
2023/01/26 10:18:56;;;;;;;4.65;2.45;;;;;;;;;;4386551;32;70608;-62
2023/01/26 10:21:46;;;;;;;4.90;2.35;;;;;;;;;;4397993;32;69257;-62
2023/01/26 10:24:33;;;;;;;2.90;2.05;;;;;;;;;;4374855;32;67037;-62
2023/01/26 10:27:20;;;;;;;4.28;2.45;;;;;;;;;;4397119;32;59984;-63
2023/01/26 10:30:13;;;;;;;3.22;2.28;;;;;;;;;;4386030;32;69478;-62
2023/01/26 10:32:59;;;;;;;3.62;2.80;;;;;;;;;;4396463;32;68884;-63
2023/01/26 10:35:46;;;;;;;3.15;2.20;;;;;;;;;;4396641;32;66318;-63
2023/01/26 10:38:33;;;;;;;3.25;2.42;;;;;;;;;;4396396;32;70768;-63
2023/01/26 10:41:26;;;;;;;3.67;2.25;;;;;;;;;;4385379;32;67000;-63
2023/01/26 10:44:17;;;;;;;2.97;2.17;;;;;;;;;;4396725;32;67587;-63
2023/01/26 10:47:15;;;;;;;4.18;2.10;;;;;;;;;;4396111;32;60793;-62
2023/01/26 10:50:23;;;;;;;2.42;2.10;;;;;;;;;;4374259;32;71882;-64
2023/01/26 10:53:17;;;;;;;2.05;1.55;;;;;;;;;;4374176;32;67422;-62
2023/01/26 10:56:09;;;;;;;3.87;2.28;;;;;;;;;;4385741;32;66931;-64
2023/01/26 10:59:03;;;;;;;2.62;2.00;;;;;;;;;;4377068;32;59493;-63
2023/01/26 11:01:54;;;;;;;2.97;2.10;;;;;;;;;;4387981;32;67743;-63
2023/01/26 11:04:41;;;;;;;2.92;1.80;;;;;;;;;;4398871;32;69465;-63
2023/01/26 11:07:33;;;;;;;2.53;1.92;;;;;;;;;;4377884;32;66831;-63
2023/01/26 11:10:23;;;;;;;2.37;1.80;;;;;;;;;;4388757;32;71801;-64
2023/01/26 11:13:18;;;;;;;3.42;1.95;;;;;;;;;;4376690;32;69992;-63
2023/01/26 11:16:10;;;;;;;3.12;1.80;;;;;;;;;;4387598;32;69498;-64
2023/01/26 11:19:31;;;;;;;2.67;1.80;;;;;;;;;;4387219;32;68733;-63
2023/01/26 11:22:43;;;;;;;2.62;2.00;;;;;;;;;;4399884;32;71674;-64
2023/01/26 11:25:41;;;;;;;1.90;1.55;;;;;;;;;;4372765;32;66687;-63
2023/01/26 11:28:37;;;;;;;2.97;1.90;;;;;;;;;;4387174;32;67361;-64
2023/01/26 11:31:42;;;;;;;2.70;1.77;;;;;;;;;;4387311;32;59985;-63
2023/01/26 11:34:47;;;;;;;3.03;2.00;;;;;;;;;;4387880;32;70535;-62
2023/01/26 11:37:36;;;;;;;3.40;1.85;;;;;;;;;;4376645;32;69486;-64
2023/01/26 11:40:48;;;;;;;2.53;1.60;;;;;;;;;;4387703;32;66935;-63
2023/01/26 11:43:59;;;;;;;4.07;1.80;;;;;;;;;;4398743;32;60247;-62
2023/01/26 11:46:51;;;;;;;3.08;1.87;;;;;;;;;;4398920;32;70548;-62
2023/01/26 11:50:13;;;;;;;3.15;1.70;;;;;;;;;;4399561;32;69023;-64
2023/01/26 11:53:31;;;;;;;2.78;1.50;;;;;;;;;;4397818;32;66743;-62
2023/01/26 11:56:18;;;;;;;2.28;1.42;;;;;;;;;;4386730;32;72133;-63
2023/01/26 11:59:32;;;;;;;3.42;1.60;;;;;;;;;;4399671;32;65882;-62
2023/01/26 12:02:32;;;;;;;1.65;1.30;;;;;;;;;;4398305;32;67944;-63
2023/01/26 12:05:29;;;;;;;2.17;1.37;;;;;;;;;;4398592;32;59275;-63
2023/01/26 12:08:19;;;;;;;;;;;;;;;;;;4387681;32;71652;-63
2023/01/26 12:11:22;;;;;;;2.58;1.52;;;;;;;;;;4375896;32;68072;-63
2023/01/26 12:14:15;;;;;;;2.08;1.60;;;;;;;;;;4397960;32;68112;-62
2023/01/26 12:17:04;;;;;;;2.62;1.65;;;;;;;;;;4398412;32;59074;-63
2023/01/26 12:20:18;;;;;;;2.67;1.40;;;;;;;;;;4399183;32;69723;-63
2023/01/26 12:23:32;;;;;;;1.83;1.35;;;;;;;;;;4387147;32;70408;-63
2023/01/26 12:26:20;;;;;;;2.40;1.60;;;;;;;;;;4399174;32;67711;-62
2023/01/26 12:29:49;;;;;;;2.87;1.65;;;;;;;;;;4376395;32;71573;-64
2023/01/26 12:32:35;;;;;;;2.85;1.37;;;;;;;;;;4394579;32;65714;-63
2023/01/26 12:35:35;;;;;;;1.95;1.40;;;;;;;;;;4397707;32;69252;-64
2023/01/26 12:38:42;;;;;;;1.85;1.60;;;;;;;;;;4397617;32;67663;-63
2023/01/26 12:41:47;;;;;;;2.78;1.42;;;;;;;;;;4397515;32;70789;-63
2023/01/26 12:44:34;;;;;;;3.87;1.50;;;;;;;;;;4397244;32;66733;-63
2023/01/26 12:47:56;;;;;;;2.55;1.30;;;;;;;;;;4397862;32;67330;-63
2023/01/26 12:50:58;;;;;;;2.87;1.37;;;;;;;;;;4387519;32;60022;-63
2023/01/26 12:53:59;;;;;;;2.20;1.33;;;;;;;;;;4376249;32;70465;-63
2023/01/26 12:56:53;;;;;;;3.72;1.80;;;;;;;;;;4377374;32;68222;-62
2023/01/26 12:59:40;;;;;;;3.50;1.92;;;;;;;;;;4397829;32;68530;-62
2023/01/26 13:02:31;;;;;;;3.37;2.00;;;;;;;;;;4389260;32;60046;-63
2023/01/26 13:05:33;;;;;;;2.65;1.62;;;;;;;;;;4398131;32;69232;-63
2023/01/26 13:08:28;;;;;;;2.58;1.60;;;;;;;;;;4398668;32;69261;-62
2023/01/26 13:11:38;;;;;;;3.20;1.73;;;;;;;;;;4386954;32;68321;-63
2023/01/26 13:14:43;;;;;;;3.90;1.35;;;;;;;;;;4396806;32;72592;-64
2023/01/26 13:17:55;;;;;;;3.25;1.83;;;;;;;;;;4375392;32;65919;-63
2023/01/26 13:20:48;;;;;;;2.33;1.30;;;;;;;;;;4374771;32;68595;-63
2023/01/26 13:23:44;;;;;;;1.85;1.23;;;;;;;;;;4376431;32;60218;-63
2023/01/26 13:26:34;;;;;;;2.07;1.37;;;;;;;;;;4387285;32;70451;-63
2023/01/26 13:29:31;;;;;;;1.85;1.40;;;;;;;;;;4398214;32;66206;-64
2023/01/26 13:32:17;;;;;;;3.20;1.52;;;;;;;;;;4397958;32;67916;-64
2023/01/26 13:35:10;;;;;;;2.78;1.83;;;;;;;;;;4400536;32;59967;-68
2023/01/26 13:38:19;;;;;;;1.98;1.58;;;;;;;;;;4398223;32;70435;-63
2023/01/26 13:41:24;;;;;;;2.45;1.30;;;;;;;;;;4390215;32;70039;-63
2023/01/26 13:44:22;;;;;;;3.17;1.60;;;;;;;;;;4387811;32;66730;-63
2023/01/26 13:47:12;;;;;;;3.53;1.50;;;;;;;;;;4375572;32;70852;-63
2023/01/26 13:49:59;;;;;;;2.67;1.90;;;;;;;;;;4396821;32;66012;-63
2023/01/26 13:52:45;;;;;;;3.22;1.90;;;;;;;;;;4398303;32;69033;-63
2023/01/26 13:55:33;;;;;;;2.85;1.25;;;;;;;;;;4397105;32;67937;-64
2023/01/26 13:58:22;;;;;;;3.95;1.48;;;;;;;;;;4374776;32;73054;-62
2023/01/26 14:01:13;;;;;;;2.67;1.37;;;;;;;;;;4385547;32;66822;-62
2023/01/26 14:04:07;;;;;;;2.60;1.48;;;;;;;;;;4364506;32;68755;-62
2023/01/26 14:07:04;;;;;;;2.70;1.95;;;;;;;;;;4397764;32;60163;-61
2023/01/26 14:09:54;;;;;;;3.12;1.70;;;;;;;;;;4376928;32;71671;-60
2023/01/26 14:12:43;;;;;;;2.50;1.70;;;;;;;;;;4385234;32;69100;-60
2023/01/26 14:15:33;;;;;;;2.15;1.50;;;;;;;;;;4376529;32;66652;-59
2023/01/26 14:18:23;;;;;;;2.83;1.40;;;;;;;;;;4386147;32;59081;-60
2023/01/26 14:21:46;;;;;;;2.90;1.55;;;;;;;;;;4396747;32;69660;-59
2023/01/26 14:24:41;;;;;;;6.18;1.83;;;;;;;;;;4386598;32;69604;-60
2023/01/26 14:27:35;;;;;;;3.47;1.70;;;;;;;;;;4386493;32;66762;-59
2023/01/26 14:30:22;;;;;;;2.90;1.55;;;;;;;;;;4397791;32;71896;-60
2023/01/26 14:33:12;;;;;;;3.40;1.83;;;;;;;;;;4398915;32;65110;-59
2023/01/26 14:36:00;;;;;;;1.77;1.30;;;;;;;;;;4366835;32;66978;-59
2023/01/26 14:38:49;;;;;;;2.42;1.67;;;;;;;;;;4400885;32;60456;-59
2023/01/26 14:41:36;;;;;;;3.25;1.80;;;;;;;;;;4399314;32;70665;-61
2023/01/26 14:44:23;;;;;;;3.12;1.85;;;;;;;;;;4388840;32;66229;-59
2023/01/26 14:47:18;;;;;;;1.90;1.50;;;;;;;;;;4377163;32;67680;-60
2023/01/26 14:50:25;;;;;;;2.12;1.85;;;;;;;;;;4399345;32;60085;-61
2023/01/26 14:53:31;;;;;;;1.83;1.40;;;;;;;;;;4389930;32;71242;-60
2023/01/26 14:56:20;;;;;;;2.80;1.50;;;;;;;;;;4399192;32;69313;-60
2023/01/26 14:59:08;;;;;;;2.65;1.58;;;;;;;;;;4388423;32;66308;-59
2023/01/26 15:02:15;;;;;;;2.85;1.77;;;;;;;;;;4398788;32;71923;-61
2023/01/26 15:05:16;;;;;;;2.55;1.70;;;;;;;;;;4387666;32;65173;-59
2023/01/26 15:08:19;;;;;;;2.90;1.62;;;;;;;;;;4388596;32;67978;-60
2023/01/26 15:14:44;;;;;;;3.55;2.10;;;;;;;;;;4344687;32;72236;-60
2023/01/26 15:17:40;;;;;;;2.53;1.87;;;;;;;;;;4387678;32;66995;-59
2023/01/26 15:20:26;;;;;;;2.15;1.80;;;;;;;;;;4399302;32;68014;-59
2023/01/26 15:23:33;;;;;;;1.90;1.33;;;;;;;;;;4399049;32;60540;-59
2023/01/26 15:26:43;;;;;;;3.17;1.90;;;;;;;;;;3863709;36;43969;-60
2023/01/26 15:29:33;;;;;;;2.67;1.60;;;;;;;;;;4414792;32;60102;-60
2023/01/26 15:32:32;;;;;;;2.25;1.60;;;;;;;;;;4414307;32;70776;-60
2023/01/26 15:35:24;;;;;;;2.28;1.65;;;;;;;;;;4414282;32;69159;-60
2023/01/26 15:38:12;;;;;;;2.28;1.65;;;;;;;;;;4403308;32;66779;-60
2023/01/26 15:40:59;;;;;;;2.33;1.55;;;;;;;;;;4392861;32;71942;-61
2023/01/26 15:43:45;;;;;;;2.35;1.60;;;;;;;;;;4426237;32;65055;-60
2023/01/26 15:46:32;;;;;;;;;;;;;;;;;;4426677;32;67170;-60
2023/01/26 15:49:21;;;;;;;2.60;1.52;;;;;;;;;;4414516;32;59651;-59
2023/01/26 15:52:13;;;;;;;2.35;1.58;;;;;;;;;;4413767;32;71865;-60
2023/01/26 15:54:59;;;;;;;3.55;1.67;;;;;;;;;;4379147;32;66501;-60
2023/01/26 15:57:46;;;;;;;2.20;1.58;;;;;;;;;;4414079;32;66401;-59
2023/01/26 16:00:32;;;;;;;1.87;1.48;;;;;;;;;;4403631;32;59981;-59
2023/01/26 16:03:20;;;;;;;1.80;1.40;;;;;;;;;;4413971;32;70892;-59
2023/01/26 16:06:08;;;;;;;1.37;1.27;;;;;;;;;;4414533;32;69566;-59
2023/01/26 16:08:56;;;;;;;2.92;1.37;;;;;;;;;;4392942;32;67864;-59
2023/01/26 16:11:50;;;;;;;2.55;1.62;;;;;;;;;;4403133;32;71370;-59
2023/01/26 16:14:37;;;;;;;2.05;1.52;;;;;;;;;;4414194;32;66005;-61
2023/01/26 16:17:23;;;;;;;2.47;1.30;;;;;;;;;;4425844;32;69297;-60
2023/01/26 16:20:11;;;;;;;1.52;1.20;;;;;;;;;;4400354;32;66795;-59
2023/01/26 16:22:57;;;;;;;;;;;;;;;;;;4403332;32;71570;-61
2023/01/26 16:25:44;;;;;;;2.62;1.58;;;;;;;;;;4425682;32;66430;-60
2023/01/26 16:28:31;;;;;;;2.10;1.48;;;;;;;;;;4403004;32;67459;-59
2023/01/26 16:31:18;;;;;;;;;;;;;;;;;;4414373;32;59134;-59
2023/01/26 16:34:05;;;;;;;2.95;1.75;;;;;;;;;;4402964;32;69973;-59
2023/01/26 16:36:52;;;;;;;3.65;1.70;;;;;;;;;;4397333;32;69222;-59
2023/01/26 16:39:38;;;;;;;2.65;1.58;;;;;;;;;;4403459;32;67792;-59
2023/01/26 16:42:25;;;;;;;1.77;1.50;;;;;;;;;;4415868;32;60069;-60
2023/01/26 16:45:21;;;;;;;2.25;1.40;;;;;;;;;;4389800;32;70836;-59
2023/01/26 16:48:13;;;;;;;2.53;1.60;;;;;;;;;;4379072;32;69590;-59
2023/01/26 16:50:59;;;;;;;2.83;1.80;;;;;;;;;;4379110;32;68331;-60
2023/01/26 16:53:47;;;;;;;3.12;1.23;;;;;;;;;;4415127;32;71934;-59
2023/01/26 16:56:33;;;;;;;2.33;1.80;;;;;;;;;;4403142;32;64610;-59
2023/01/26 16:59:19;;;;;;;2.70;1.52;;;;;;;;;;4403180;32;66873;-59
2023/01/26 17:02:22;;;;;;;2.67;1.60;;;;;;;;;;4403403;32;59229;-61
2023/01/26 17:05:20;;;;;;;3.03;1.77;;;;;;;;;;4381460;32;69429;-59
2023/01/26 17:08:06;;;;;;;2.35;1.40;;;;;;;;;;4402947;32;66109;-60
2023/01/26 17:10:53;;;;;;;2.65;1.70;;;;;;;;;;4389291;32;67088;-60
2023/01/26 17:13:40;;;;;;;2.95;1.50;;;;;;;;;;4400325;32;59898;-59
2023/01/26 17:16:32;;;;;;;2.40;1.50;;;;;;;;;;4389324;32;70822;-60
2023/01/26 17:19:19;;;;;;;3.22;1.83;;;;;;;;;;4402711;32;68492;-60
2023/01/26 17:22:06;;;;;;;6.82;1.60;;;;;;;;;;4392205;32;67955;-59
2023/01/26 17:24:53;;;;;;;1.73;1.30;;;;;;;;;;4402440;32;71743;-59
2023/01/26 17:27:39;;;;;;;;;;;;;;;;;;4403107;32;64808;-60
2023/01/26 17:30:26;;;;;;;2.95;1.42;;;;;;;;;;4389757;32;68271;-59
2023/01/26 17:33:12;;;;;;;2.28;1.40;;;;;;;;;;4402872;32;67747;-59
2023/01/26 17:36:00;;;;;;;2.42;1.40;;;;;;;;;;4389405;32;71292;-61
2023/01/26 17:38:48;;;;;;;2.28;1.50;;;;;;;;;;4403070;32;66035;-59
2023/01/26 17:41:34;;;;;;;;;;;;;;;;;;4389590;32;68170;-61
2023/01/26 17:44:21;;;;;;;3.03;1.48;;;;;;;;;;4403144;32;59955;-59
2023/01/26 17:47:08;;;;;;;2.33;1.75;;;;;;;;;;4402451;32;69537;-60
2023/01/26 17:49:55;;;;;;;2.85;1.90;;;;;;;;;;4401964;32;69291;-60
2023/01/26 17:52:42;;;;;;;;;;;;;;;;;;4392188;32;66833;-61
2023/01/26 17:55:29;;;;;;;1.83;1.30;;;;;;;;;;4378821;32;59338;-60
2023/01/26 17:58:15;;;;;;;2.28;1.52;;;;;;;;;;4402347;32;70809;-59
2023/01/26 18:01:03;;;;;;;2.17;1.45;;;;;;;;;;4377928;32;69931;-59
2023/01/26 18:03:50;;;;;;;2.65;1.50;;;;;;;;;;4378204;32;68412;-59
2023/01/26 18:06:37;;;;;;;2.42;1.55;;;;;;;;;;4388638;32;71267;-59
2023/01/26 18:09:24;;;;;;;2.00;1.50;;;;;;;;;;4402555;32;65954;-62